sensor_id;sensor_type;location;lat;lon;timestamp;P1;durP1;ratioP1;P2;durP2;ratioP2
61336;SDS011;47212;41.326;2.104;2022-11-23T00:03:18;4.45;;;1.92;;
61336;SDS011;47212;41.326;2.104;2022-11-23T00:08:23;2.20;;;1.50;;
61336;SDS011;47212;41.326;2.104;2022-11-23T00:13:33;3.13;;;1.73;;
61336;SDS011;47212;41.326;2.104;2022-11-23T00:18:44;2.58;;;1.85;;
61336;SDS011;47212;41.326;2.104;2022-11-23T00:23:54;3.92;;;1.95;;
61336;SDS011;47212;41.326;2.104;2022-11-23T00:29:17;3.35;;;1.80;;
61336;SDS011;47212;41.326;2.104;2022-11-23T00:34:24;2.65;;;1.60;;
61336;SDS011;47212;41.326;2.104;2022-11-23T00:39:29;3.92;;;2.13;;
61336;SDS011;47212;41.326;2.104;2022-11-23T00:44:36;3.53;;;1.63;;
61336;SDS011;47212;41.326;2.104;2022-11-23T00:49:42;4.82;;;1.60;;
61336;SDS011;47212;41.326;2.104;2022-11-23T00:54:58;9.15;;;5.25;;
61336;SDS011;47212;41.326;2.104;2022-11-23T01:00:04;6.03;;;4.47;;
61336;SDS011;47212;41.326;2.104;2022-11-23T01:05:40;4.15;;;2.30;;
61336;SDS011;47212;41.326;2.104;2022-11-23T01:10:52;1.93;;;1.60;;
61336;SDS011;47212;41.326;2.104;2022-11-23T01:16:16;2.78;;;1.63;;
61336;SDS011;47212;41.326;2.104;2022-11-23T01:21:29;2.45;;;1.60;;
61336;SDS011;47212;41.326;2.104;2022-11-23T01:26:40;2.33;;;1.33;;
61336;SDS011;47212;41.326;2.104;2022-11-23T01:31:47;2.50;;;1.60;;
61336;SDS011;47212;41.326;2.104;2022-11-23T01:36:59;3.50;;;1.48;;
61336;SDS011;47212;41.326;2.104;2022-11-23T01:42:04;3.63;;;1.60;;
61336;SDS011;47212;41.326;2.104;2022-11-23T01:47:16;2.70;;;1.58;;
61336;SDS011;47212;41.326;2.104;2022-11-23T01:52:25;3.17;;;1.77;;
61336;SDS011;47212;41.326;2.104;2022-11-23T01:57:31;2.90;;;1.60;;
61336;SDS011;47212;41.326;2.104;2022-11-23T02:05:11;2.72;;;1.65;;
61336;SDS011;47212;41.326;2.104;2022-11-23T02:10:20;2.53;;;1.48;;
61336;SDS011;47212;41.326;2.104;2022-11-23T02:15:27;2.13;;;1.45;;
61336;SDS011;47212;41.326;2.104;2022-11-23T02:31:17;3.03;;;1.65;;
61336;SDS011;47212;41.326;2.104;2022-11-23T02:36:52;2.47;;;1.17;;
61336;SDS011;47212;41.326;2.104;2022-11-23T02:42:05;3.17;;;1.70;;
61336;SDS011;47212;41.326;2.104;2022-11-23T02:47:24;1.25;;;1.00;;
61336;SDS011;47212;41.326;2.104;2022-11-23T02:52:28;2.78;;;1.45;;
61336;SDS011;47212;41.326;2.104;2022-11-23T02:57:33;2.70;;;1.60;;
61336;SDS011;47212;41.326;2.104;2022-11-23T03:02:37;3.70;;;2.15;;
61336;SDS011;47212;41.326;2.104;2022-11-23T03:07:41;2.13;;;1.33;;
61336;SDS011;47212;41.326;2.104;2022-11-23T03:12:47;2.95;;;1.30;;
61336;SDS011;47212;41.326;2.104;2022-11-23T03:17:54;1.55;;;1.20;;
61336;SDS011;47212;41.326;2.104;2022-11-23T03:23:02;2.42;;;1.40;;
61336;SDS011;47212;41.326;2.104;2022-11-23T03:28:13;2.53;;;1.60;;
61336;SDS011;47212;41.326;2.104;2022-11-23T03:33:16;2.35;;;1.38;;
61336;SDS011;47212;41.326;2.104;2022-11-23T03:38:35;2.53;;;1.33;;
61336;SDS011;47212;41.326;2.104;2022-11-23T03:43:56;3.63;;;1.80;;
61336;SDS011;47212;41.326;2.104;2022-11-23T03:49:09;3.00;;;1.50;;
61336;SDS011;47212;41.326;2.104;2022-11-23T03:54:16;1.85;;;1.25;;
61336;SDS011;47212;41.326;2.104;2022-11-23T03:59:23;1.98;;;1.42;;
61336;SDS011;47212;41.326;2.104;2022-11-23T04:04:29;2.22;;;1.50;;
61336;SDS011;47212;41.326;2.104;2022-11-23T04:09:47;1.92;;;1.23;;
61336;SDS011;47212;41.326;2.104;2022-11-23T04:15:01;2.85;;;1.75;;
61336;SDS011;47212;41.326;2.104;2022-11-23T04:20:10;4.40;;;1.58;;
61336;SDS011;47212;41.326;2.104;2022-11-23T04:25:18;2.50;;;1.38;;
61336;SDS011;47212;41.326;2.104;2022-11-23T04:30:25;3.25;;;1.45;;
61336;SDS011;47212;41.326;2.104;2022-11-23T04:35:32;1.98;;;1.35;;
61336;SDS011;47212;41.326;2.104;2022-11-23T04:40:45;7.68;;;1.88;;
61336;SDS011;47212;41.326;2.104;2022-11-23T04:45:55;1.85;;;1.45;;
61336;SDS011;47212;41.326;2.104;2022-11-23T04:51:05;3.08;;;1.80;;
61336;SDS011;47212;41.326;2.104;2022-11-23T04:56:24;2.22;;;1.40;;
61336;SDS011;47212;41.326;2.104;2022-11-23T05:01:35;2.85;;;1.75;;
61336;SDS011;47212;41.326;2.104;2022-11-23T05:07:08;3.88;;;1.48;;
61336;SDS011;47212;41.326;2.104;2022-11-23T05:12:16;1.98;;;1.33;;
61336;SDS011;47212;41.326;2.104;2022-11-23T05:17:29;2.08;;;1.60;;
61336;SDS011;47212;41.326;2.104;2022-11-23T05:22:43;2.70;;;1.50;;
61336;SDS011;47212;41.326;2.104;2022-11-23T05:27:56;3.25;;;1.80;;
61336;SDS011;47212;41.326;2.104;2022-11-23T05:33:15;3.95;;;1.92;;
61336;SDS011;47212;41.326;2.104;2022-11-23T05:38:21;3.17;;;1.77;;
61336;SDS011;47212;41.326;2.104;2022-11-23T05:43:34;3.17;;;2.03;;
61336;SDS011;47212;41.326;2.104;2022-11-23T05:48:54;2.60;;;1.75;;
61336;SDS011;47212;41.326;2.104;2022-11-23T05:54:04;4.03;;;2.00;;
61336;SDS011;47212;41.326;2.104;2022-11-23T05:59:31;2.97;;;2.00;;
61336;SDS011;47212;41.326;2.104;2022-11-23T06:04:55;3.17;;;2.00;;
61336;SDS011;47212;41.326;2.104;2022-11-23T06:10:09;4.15;;;2.33;;
61336;SDS011;47212;41.326;2.104;2022-11-23T06:15:28;4.50;;;2.20;;
61336;SDS011;47212;41.326;2.104;2022-11-23T06:20:34;3.75;;;2.20;;
61336;SDS011;47212;41.326;2.104;2022-11-23T06:25:41;4.57;;;2.17;;
61336;SDS011;47212;41.326;2.104;2022-11-23T06:31:05;4.47;;;2.40;;
61336;SDS011;47212;41.326;2.104;2022-11-23T06:36:09;5.07;;;2.53;;
61336;SDS011;47212;41.326;2.104;2022-11-23T06:41:24;3.50;;;2.30;;
61336;SDS011;47212;41.326;2.104;2022-11-23T06:46:37;5.15;;;3.10;;
61336;SDS011;47212;41.326;2.104;2022-11-23T06:51:44;5.13;;;2.90;;
61336;SDS011;47212;41.326;2.104;2022-11-23T06:56:50;4.95;;;2.58;;
61336;SDS011;47212;41.326;2.104;2022-11-23T07:01:59;6.22;;;2.25;;
61336;SDS011;47212;41.326;2.104;2022-11-23T07:07:09;4.45;;;2.10;;
61336;SDS011;47212;41.326;2.104;2022-11-23T07:12:31;6.43;;;2.22;;
61336;SDS011;47212;41.326;2.104;2022-11-23T07:17:40;6.38;;;2.17;;
61336;SDS011;47212;41.326;2.104;2022-11-23T07:23:02;3.75;;;1.83;;
61336;SDS011;47212;41.326;2.104;2022-11-23T07:28:10;3.67;;;2.05;;
61336;SDS011;47212;41.326;2.104;2022-11-23T07:33:25;4.72;;;2.10;;
61336;SDS011;47212;41.326;2.104;2022-11-23T07:38:34;5.75;;;2.45;;
61336;SDS011;47212;41.326;2.104;2022-11-23T07:43:50;4.63;;;2.20;;
61336;SDS011;47212;41.326;2.104;2022-11-23T07:49:06;7.35;;;2.55;;
61336;SDS011;47212;41.326;2.104;2022-11-23T07:54:13;4.97;;;2.30;;
61336;SDS011;47212;41.326;2.104;2022-11-23T07:59:26;4.30;;;2.17;;
61336;SDS011;47212;41.326;2.104;2022-11-23T08:04:38;4.43;;;2.15;;
61336;SDS011;47212;41.326;2.104;2022-11-23T08:09:45;10.75;;;2.30;;
61336;SDS011;47212;41.326;2.104;2022-11-23T08:14:54;5.05;;;2.53;;
61336;SDS011;47212;41.326;2.104;2022-11-23T08:20:04;4.97;;;2.25;;
61336;SDS011;47212;41.326;2.104;2022-11-23T08:25:07;4.15;;;2.53;;
61336;SDS011;47212;41.326;2.104;2022-11-23T08:30:13;5.57;;;2.88;;
61336;SDS011;47212;41.326;2.104;2022-11-23T08:35:24;6.53;;;3.45;;
61336;SDS011;47212;41.326;2.104;2022-11-23T08:40:31;8.80;;;4.50;;
61336;SDS011;47212;41.326;2.104;2022-11-23T08:45:38;7.78;;;4.30;;
61336;SDS011;47212;41.326;2.104;2022-11-23T08:50:47;7.45;;;4.13;;
61336;SDS011;47212;41.326;2.104;2022-11-23T08:56:02;6.53;;;3.83;;
61336;SDS011;47212;41.326;2.104;2022-11-23T09:01:11;8.55;;;4.78;;
61336;SDS011;47212;41.326;2.104;2022-11-23T09:06:21;10.32;;;4.38;;
61336;SDS011;47212;41.326;2.104;2022-11-23T09:11:34;10.85;;;4.53;;
61336;SDS011;47212;41.326;2.104;2022-11-23T09:16:43;8.88;;;4.47;;
61336;SDS011;47212;41.326;2.104;2022-11-23T09:21:55;6.80;;;3.88;;
61336;SDS011;47212;41.326;2.104;2022-11-23T09:27:04;5.45;;;3.00;;
61336;SDS011;47212;41.326;2.104;2022-11-23T09:32:08;6.65;;;3.10;;
61336;SDS011;47212;41.326;2.104;2022-11-23T09:37:26;6.15;;;2.80;;
61336;SDS011;47212;41.326;2.104;2022-11-23T09:59:21;6.93;;;2.80;;
61336;SDS011;47212;41.326;2.104;2022-11-23T10:04:38;7.95;;;2.75;;
61336;SDS011;47212;41.326;2.104;2022-11-23T10:09:56;5.28;;;2.40;;
61336;SDS011;47212;41.326;2.104;2022-11-23T10:26:54;8.93;;;3.25;;
61336;SDS011;47212;41.326;2.104;2022-11-23T10:32:06;8.50;;;3.17;;
61336;SDS011;47212;41.326;2.104;2022-11-23T10:37:46;4.82;;;2.63;;
61336;SDS011;47212;41.326;2.104;2022-11-23T10:42:55;6.07;;;2.00;;
61336;SDS011;47212;41.326;2.104;2022-11-23T10:48:12;7.03;;;1.70;;
61336;SDS011;47212;41.326;2.104;2022-11-23T10:53:40;3.67;;;1.45;;
61336;SDS011;47212;41.326;2.104;2022-11-23T10:58:45;3.22;;;1.42;;
61336;SDS011;47212;41.326;2.104;2022-11-23T11:03:50;5.00;;;1.42;;
61336;SDS011;47212;41.326;2.104;2022-11-23T11:09:16;4.43;;;1.40;;
61336;SDS011;47212;41.326;2.104;2022-11-23T11:14:36;4.10;;;1.30;;
61336;SDS011;47212;41.326;2.104;2022-11-23T11:19:52;4.97;;;1.48;;
61336;SDS011;47212;41.326;2.104;2022-11-23T11:25:20;6.57;;;1.55;;
61336;SDS011;47212;41.326;2.104;2022-11-23T11:30:54;4.40;;;1.30;;
61336;SDS011;47212;41.326;2.104;2022-11-23T11:36:17;3.88;;;1.25;;
61336;SDS011;47212;41.326;2.104;2022-11-23T11:41:36;4.55;;;1.50;;
61336;SDS011;47212;41.326;2.104;2022-11-23T11:46:48;3.38;;;1.35;;
61336;SDS011;47212;41.326;2.104;2022-11-23T11:52:07;6.40;;;1.67;;
61336;SDS011;47212;41.326;2.104;2022-11-23T11:57:55;3.83;;;1.30;;
61336;SDS011;47212;41.326;2.104;2022-11-23T12:09:06;5.45;;;1.55;;
61336;SDS011;47212;41.326;2.104;2022-11-23T12:14:13;3.58;;;1.50;;
61336;SDS011;47212;41.326;2.104;2022-11-23T12:19:20;5.00;;;1.58;;
61336;SDS011;47212;41.326;2.104;2022-11-23T12:25:20;4.38;;;1.67;;
61336;SDS011;47212;41.326;2.104;2022-11-23T12:59:01;8.30;;;2.20;;
61336;SDS011;47212;41.326;2.104;2022-11-23T13:16:01;4.45;;;1.63;;
61336;SDS011;47212;41.326;2.104;2022-11-23T13:21:26;4.32;;;1.90;;
61336;SDS011;47212;41.326;2.104;2022-11-23T13:26:42;9.48;;;3.47;;
61336;SDS011;47212;41.326;2.104;2022-11-23T13:31:55;7.20;;;2.42;;
61336;SDS011;47212;41.326;2.104;2022-11-23T13:43:44;7.03;;;1.88;;
61336;SDS011;47212;41.326;2.104;2022-11-23T13:48:43;16.88;;;10.98;;
61336;SDS011;47212;41.326;2.104;2022-11-23T13:54:05;5.82;;;3.30;;
61336;SDS011;47212;41.326;2.104;2022-11-23T13:59:27;11.15;;;3.42;;
61336;SDS011;47212;41.326;2.104;2022-11-23T14:04:51;5.40;;;1.75;;
61336;SDS011;47212;41.326;2.104;2022-11-23T14:10:05;3.38;;;1.55;;
61336;SDS011;47212;41.326;2.104;2022-11-23T14:15:54;4.03;;;1.90;;
61336;SDS011;47212;41.326;2.104;2022-11-23T14:43:21;2.70;;;1.40;;
61336;SDS011;47212;41.326;2.104;2022-11-23T14:48:29;2.20;;;1.23;;
61336;SDS011;47212;41.326;2.104;2022-11-23T14:53:49;2.00;;;1.10;;
61336;SDS011;47212;41.326;2.104;2022-11-23T14:59:21;1.33;;;1.00;;
61336;SDS011;47212;41.326;2.104;2022-11-23T15:04:32;1.75;;;1.00;;
61336;SDS011;47212;41.326;2.104;2022-11-23T15:15:28;2.53;;;1.20;;
61336;SDS011;47212;41.326;2.104;2022-11-23T15:20:48;1.55;;;1.10;;
61336;SDS011;47212;41.326;2.104;2022-11-23T15:26:11;4.18;;;1.40;;
61336;SDS011;47212;41.326;2.104;2022-11-23T15:31:52;1.50;;;1.10;;
61336;SDS011;47212;41.326;2.104;2022-11-23T15:37:22;2.97;;;1.30;;
61336;SDS011;47212;41.326;2.104;2022-11-23T15:42:46;2.15;;;1.30;;
61336;SDS011;47212;41.326;2.104;2022-11-23T15:48:02;3.30;;;1.63;;
61336;SDS011;47212;41.326;2.104;2022-11-23T15:53:16;2.45;;;1.60;;
61336;SDS011;47212;41.326;2.104;2022-11-23T15:58:23;2.58;;;1.58;;
61336;SDS011;47212;41.326;2.104;2022-11-23T16:20:42;2.75;;;1.60;;
61336;SDS011;47212;41.326;2.104;2022-11-23T16:26:11;5.03;;;2.03;;
61336;SDS011;47212;41.326;2.104;2022-11-23T16:31:38;5.75;;;1.65;;
61336;SDS011;47212;41.326;2.104;2022-11-23T16:36:46;7.20;;;2.00;;
61336;SDS011;47212;41.326;2.104;2022-11-23T16:41:51;8.32;;;1.80;;
61336;SDS011;47212;41.326;2.104;2022-11-23T16:47:09;3.63;;;1.40;;
61336;SDS011;47212;41.326;2.104;2022-11-23T16:52:21;5.57;;;1.70;;
61336;SDS011;47212;41.326;2.104;2022-11-23T16:57:32;2.97;;;1.40;;
61336;SDS011;47212;41.326;2.104;2022-11-23T17:02:55;3.33;;;1.42;;
61336;SDS011;47212;41.326;2.104;2022-11-23T17:08:10;3.28;;;1.20;;
61336;SDS011;47212;41.326;2.104;2022-11-23T17:13:25;6.75;;;1.52;;
61336;SDS011;47212;41.326;2.104;2022-11-23T17:18:41;3.78;;;1.25;;
61336;SDS011;47212;41.326;2.104;2022-11-23T17:23:48;1.63;;;1.00;;
61336;SDS011;47212;41.326;2.104;2022-11-23T17:29:05;1.27;;;1.00;;
61336;SDS011;47212;41.326;2.104;2022-11-23T17:34:16;3.33;;;1.67;;
61336;SDS011;47212;41.326;2.104;2022-11-23T17:39:24;4.75;;;1.80;;
61336;SDS011;47212;41.326;2.104;2022-11-23T17:44:33;2.67;;;1.52;;
61336;SDS011;47212;41.326;2.104;2022-11-23T17:49:39;2.17;;;1.20;;
61336;SDS011;47212;41.326;2.104;2022-11-23T17:54:53;1.77;;;1.27;;
61336;SDS011;47212;41.326;2.104;2022-11-23T18:00:05;3.35;;;1.67;;
61336;SDS011;47212;41.326;2.104;2022-11-23T18:05:26;3.15;;;1.73;;
61336;SDS011;47212;41.326;2.104;2022-11-23T18:10:40;7.32;;;2.53;;
61336;SDS011;47212;41.326;2.104;2022-11-23T18:15:44;2.97;;;1.73;;
61336;SDS011;47212;41.326;2.104;2022-11-23T18:20:53;3.50;;;1.70;;
61336;SDS011;47212;41.326;2.104;2022-11-23T18:31:24;5.78;;;1.88;;
61336;SDS011;47212;41.326;2.104;2022-11-23T18:36:30;3.75;;;1.70;;
61336;SDS011;47212;41.326;2.104;2022-11-23T18:41:42;2.55;;;1.50;;
61336;SDS011;47212;41.326;2.104;2022-11-23T18:46:46;5.03;;;2.03;;
61336;SDS011;47212;41.326;2.104;2022-11-23T18:51:51;5.88;;;1.90;;
61336;SDS011;47212;41.326;2.104;2022-11-23T18:56:53;4.05;;;2.00;;
61336;SDS011;47212;41.326;2.104;2022-11-23T19:01:58;8.32;;;3.17;;
61336;SDS011;47212;41.326;2.104;2022-11-23T19:07:03;5.75;;;2.85;;
61336;SDS011;47212;41.326;2.104;2022-11-23T19:12:09;4.93;;;2.33;;
61336;SDS011;47212;41.326;2.104;2022-11-23T19:17:17;5.68;;;2.35;;
61336;SDS011;47212;41.326;2.104;2022-11-23T19:22:27;4.57;;;1.92;;
61336;SDS011;47212;41.326;2.104;2022-11-23T19:27:55;4.95;;;2.88;;
61336;SDS011;47212;41.326;2.104;2022-11-23T19:33:05;6.47;;;3.50;;
61336;SDS011;47212;41.326;2.104;2022-11-23T19:38:18;10.10;;;4.13;;
61336;SDS011;47212;41.326;2.104;2022-11-23T19:43:21;8.43;;;4.05;;
61336;SDS011;47212;41.326;2.104;2022-11-23T19:48:30;12.20;;;4.82;;
61336;SDS011;47212;41.326;2.104;2022-11-23T19:53:37;9.05;;;4.13;;
61336;SDS011;47212;41.326;2.104;2022-11-23T19:58:40;8.70;;;3.85;;
61336;SDS011;47212;41.326;2.104;2022-11-23T20:03:57;7.05;;;2.97;;
61336;SDS011;47212;41.326;2.104;2022-11-23T20:09:14;9.05;;;3.90;;
61336;SDS011;47212;41.326;2.104;2022-11-23T20:14:24;8.52;;;3.50;;
61336;SDS011;47212;41.326;2.104;2022-11-23T20:19:29;7.35;;;3.20;;
61336;SDS011;47212;41.326;2.104;2022-11-23T20:24:44;6.07;;;2.67;;
61336;SDS011;47212;41.326;2.104;2022-11-23T20:29:49;5.55;;;2.63;;
61336;SDS011;47212;41.326;2.104;2022-11-23T20:35:03;7.40;;;3.60;;
61336;SDS011;47212;41.326;2.104;2022-11-23T20:40:14;9.75;;;3.20;;
61336;SDS011;47212;41.326;2.104;2022-11-23T20:45:21;5.38;;;3.15;;
61336;SDS011;47212;41.326;2.104;2022-11-23T20:50:28;10.15;;;5.32;;
61336;SDS011;47212;41.326;2.104;2022-11-23T21:01:28;6.25;;;3.50;;
61336;SDS011;47212;41.326;2.104;2022-11-23T21:06:46;4.50;;;2.47;;
61336;SDS011;47212;41.326;2.104;2022-11-23T21:11:52;5.78;;;2.70;;
61336;SDS011;47212;41.326;2.104;2022-11-23T21:17:18;8.10;;;3.45;;
61336;SDS011;47212;41.326;2.104;2022-11-23T21:22:26;7.70;;;3.10;;
61336;SDS011;47212;41.326;2.104;2022-11-23T21:27:32;6.07;;;3.20;;
61336;SDS011;47212;41.326;2.104;2022-11-23T21:32:37;6.38;;;3.55;;
61336;SDS011;47212;41.326;2.104;2022-11-23T21:37:42;6.45;;;3.38;;
61336;SDS011;47212;41.326;2.104;2022-11-23T21:42:49;6.22;;;3.40;;
61336;SDS011;47212;41.326;2.104;2022-11-23T21:48:00;6.53;;;3.15;;
61336;SDS011;47212;41.326;2.104;2022-11-23T21:53:26;7.55;;;3.80;;
61336;SDS011;47212;41.326;2.104;2022-11-23T21:58:28;6.32;;;4.03;;
61336;SDS011;47212;41.326;2.104;2022-11-23T22:03:39;7.38;;;3.80;;
61336;SDS011;47212;41.326;2.104;2022-11-23T22:08:48;6.55;;;3.40;;
61336;SDS011;47212;41.326;2.104;2022-11-23T22:14:03;5.70;;;3.13;;
61336;SDS011;47212;41.326;2.104;2022-11-23T22:19:12;6.43;;;3.38;;
61336;SDS011;47212;41.326;2.104;2022-11-23T22:24:18;5.97;;;2.75;;
61336;SDS011;47212;41.326;2.104;2022-11-23T22:29:36;7.10;;;2.92;;
61336;SDS011;47212;41.326;2.104;2022-11-23T22:34:48;6.05;;;3.35;;
61336;SDS011;47212;41.326;2.104;2022-11-23T22:39:54;6.93;;;3.42;;
61336;SDS011;47212;41.326;2.104;2022-11-23T22:44:59;7.63;;;2.92;;
61336;SDS011;47212;41.326;2.104;2022-11-23T22:50:03;5.80;;;3.03;;
61336;SDS011;47212;41.326;2.104;2022-11-23T22:55:41;8.15;;;3.22;;
61336;SDS011;47212;41.326;2.104;2022-11-23T23:00:48;7.45;;;3.17;;
61336;SDS011;47212;41.326;2.104;2022-11-23T23:05:53;8.18;;;3.35;;
61336;SDS011;47212;41.326;2.104;2022-11-23T23:11:02;5.78;;;2.42;;
61336;SDS011;47212;41.326;2.104;2022-11-23T23:16:11;7.72;;;3.25;;
61336;SDS011;47212;41.326;2.104;2022-11-23T23:21:18;5.93;;;2.85;;
61336;SDS011;47212;41.326;2.104;2022-11-23T23:26:25;4.95;;;2.40;;
61336;SDS011;47212;41.326;2.104;2022-11-23T23:31:34;8.43;;;3.05;;
61336;SDS011;47212;41.326;2.104;2022-11-23T23:36:42;5.95;;;3.03;;
61336;SDS011;47212;41.326;2.104;2022-11-23T23:41:49;5.28;;;2.85;;
61336;SDS011;47212;41.326;2.104;2022-11-23T23:46:54;6.15;;;3.15;;
61336;SDS011;47212;41.326;2.104;2022-11-23T23:52:00;9.23;;;5.38;;
61336;SDS011;47212;41.326;2.104;2022-11-23T23:57:05;6.25;;;3.10;;
